createdAt,value
2019-04-22T00:01:40.452Z,73.13
2019-04-22T00:04:28.674Z,75.74
2019-04-22T00:07:18.843Z,77.16
2019-04-22T00:09:58.444Z,77.96
2019-04-22T00:12:37.230Z,78.73
2019-04-22T00:14:59.583Z,78.85
2019-04-22T00:17:45.501Z,78.60
2019-04-22T00:20:14.403Z,78.56
2019-04-22T00:22:54.968Z,78.37
2019-04-22T00:25:26.510Z,77.17
2019-04-22T00:28:04.900Z,76.42
2019-04-22T00:30:36.004Z,76.21
2019-04-22T00:33:29.107Z,75.65
2019-04-22T00:36:02.475Z,73.84
2019-04-22T00:38:42.509Z,70.74
2019-04-22T00:41:13.163Z,70.15
2019-04-22T00:43:49.330Z,70.22
2019-04-22T00:46:27.562Z,78.30
2019-04-22T00:49:49.048Z,78.97
2019-04-22T00:51:36.423Z,80.52
2019-04-22T00:54:06.005Z,81.19
2019-04-22T00:56:40.853Z,82.12
2019-04-22T00:59:20.110Z,81.92
2019-04-22T01:01:59.129Z,81.89
2019-04-22T01:04:37.078Z,81.35
2019-04-22T01:07:06.272Z,80.85
2019-04-22T01:09:49.847Z,80.70
2019-04-22T01:12:25.023Z,81.07
2019-04-22T01:14:51.351Z,81.10
2019-04-22T01:17:29.307Z,81.61
2019-04-22T01:20:38.479Z,81.53
2019-04-22T01:22:34.895Z,81.20
2019-04-22T01:25:08.087Z,80.63
2019-04-22T01:27:41.834Z,80.66
2019-04-22T01:30:10.937Z,80.02
2019-04-22T01:32:38.532Z,79.87
2019-04-22T01:35:20.975Z,79.57
2019-04-22T01:38:03.061Z,81.22
2019-04-22T01:40:45.245Z,81.20
2019-04-22T01:43:29.385Z,82.05
2019-04-22T01:46:05.594Z,83.78
2019-04-22T01:48:36.705Z,85.81
2019-04-22T01:51:01.336Z,87.91
2019-04-22T01:53:43.512Z,87.35
2019-04-22T01:56:22.234Z,87.15
2019-04-22T01:58:44.198Z,86.34
2019-04-22T02:01:30.769Z,85.63
2019-04-22T02:04:01.195Z,85.04
2019-04-22T02:06:36.368Z,84.50
2019-04-22T02:09:18.848Z,84.09
2019-04-22T02:12:11.184Z,83.91
2019-04-22T02:14:27.593Z,83.25
2019-04-22T02:17:20.017Z,82.61
2019-04-22T02:22:12.884Z,80.17
2019-04-22T02:24:47.054Z,80.22
2019-04-22T02:35:11.257Z,77.35
2019-04-22T02:37:36.101Z,87.21
2019-04-22T02:40:17.320Z,87.55
2019-04-22T02:42:51.700Z,86.93
2019-04-22T02:45:46.339Z,86.48
2019-04-22T02:48:09.921Z,86.07
2019-04-22T02:50:37.661Z,85.43
2019-04-22T02:53:40.069Z,85.19
2019-04-22T02:58:39.008Z,84.93
2019-04-22T03:01:06.111Z,84.61
2019-04-22T03:03:50.597Z,84.08
2019-04-22T03:06:30.405Z,83.55
2019-04-22T03:08:45.672Z,83.25
2019-04-22T03:16:41.163Z,82.55
2019-04-22T03:21:38.060Z,80.70
2019-04-22T03:24:23.608Z,79.65
2019-04-22T03:37:52.543Z,76.69
2019-04-22T03:40:44.768Z,75.70
2019-04-22T03:43:10.892Z,75.62
2019-04-22T03:45:31.836Z,76.04
2019-04-22T03:48:26.366Z,76.84
2019-04-22T03:50:52.608Z,77.74
2019-04-22T03:53:29.117Z,79.25
2019-04-22T03:56:15.545Z,80.33
2019-04-22T03:58:38.951Z,81.12
2019-04-22T04:01:20.957Z,81.57
2019-04-22T04:03:50.685Z,82.05
2019-04-22T04:06:29.640Z,82.26
2019-04-22T04:09:04.692Z,82.47
2019-04-22T04:11:44.820Z,82.41
2019-04-22T04:14:21.826Z,82.56
2019-04-22T04:16:52.115Z,83.07
2019-04-22T04:19:27.831Z,83.30
2019-04-22T04:21:48.491Z,83.57
2019-04-22T04:24:44.585Z,83.96
2019-04-22T04:27:27.171Z,84.13
2019-04-22T04:29:54.788Z,83.46
2019-04-22T04:37:45.040Z,80.46
2019-04-22T04:42:39.969Z,77.81
2019-04-22T04:45:31.999Z,77.04
2019-04-22T04:50:18.586Z,76.39
2019-04-22T04:53:06.389Z,74.80
2019-04-22T04:55:49.124Z,73.76
2019-04-22T05:01:03.495Z,71.04
2019-04-22T05:03:29.826Z,70.51
2019-04-22T05:05:59.318Z,69.64
2019-04-22T05:08:54.451Z,68.61
2019-04-22T05:13:54.981Z,66.84
2019-04-22T05:18:57.159Z,65.59
2019-04-22T05:21:40.186Z,64.87
2019-04-22T05:24:15.159Z,63.37
2019-04-22T05:26:39.812Z,61.80
2019-04-22T05:29:15.060Z,60.25
2019-04-22T05:31:55.319Z,58.69
2019-04-22T05:34:25.841Z,58.16
2019-04-22T05:36:52.693Z,55.73
2019-04-22T05:39:33.968Z,53.45
2019-04-22T05:42:10.246Z,52.03
2019-04-22T05:45:03.039Z,50.92
2019-04-22T05:47:23.691Z,50.59
2019-04-22T05:49:55.156Z,49.91
2019-04-22T05:52:46.833Z,49.79
2019-04-22T05:55:08.359Z,49.28
2019-04-22T05:57:44.345Z,50.50
2019-04-22T06:03:15.423Z,50.83
2019-04-22T06:05:41.700Z,50.33
2019-04-22T06:08:16.691Z,50.28
2019-04-22T06:10:58.096Z,49.48
2019-04-22T06:13:27.654Z,48.22
2019-04-22T06:16:09.446Z,47.44
2019-04-22T06:18:50.333Z,46.27
2019-04-22T06:21:31.096Z,45.02
2019-04-22T06:24:09.537Z,43.83
2019-04-22T06:29:15.307Z,42.80
2019-04-22T06:32:11.801Z,42.77
2019-04-22T06:34:26.550Z,42.47
2019-04-22T06:42:19.555Z,43.21
2019-04-22T06:44:52.664Z,43.66
2019-04-22T06:47:45.666Z,43.45
2019-04-22T06:49:58.932Z,42.96
2019-04-22T06:52:38.236Z,43.18
2019-04-22T06:55:22.846Z,44.02
2019-04-22T06:57:51.159Z,44.83
2019-04-22T07:00:30.559Z,45.10
2019-04-22T07:03:37.721Z,44.60
2019-04-22T07:05:59.653Z,44.07
2019-04-22T07:08:59.281Z,43.77
2019-04-22T07:11:06.023Z,43.58
2019-04-22T07:13:43.483Z,43.66
2019-04-22T07:18:56.868Z,38.70
2019-04-22T07:21:30.857Z,37.63
2019-04-22T07:24:20.185Z,36.27
2019-04-22T07:26:37.585Z,35.11
2019-04-22T07:29:17.071Z,34.26
2019-04-22T07:31:54.429Z,34.78
2019-04-22T07:37:09.526Z,35.14
2019-04-22T07:39:39.554Z,35.27
2019-04-22T07:42:19.243Z,33.99
2019-04-22T07:44:52.064Z,33.02
2019-04-22T07:47:31.191Z,33.24
2019-04-22T07:50:05.543Z,30.79
2019-04-22T07:52:38.693Z,30.76
2019-04-22T07:55:13.431Z,30.11
2019-04-22T07:57:52.334Z,29.84
2019-04-22T08:00:29.493Z,30.42
2019-04-22T08:05:52.167Z,30.89
2019-04-22T08:08:26.083Z,30.26
2019-04-22T08:11:10.324Z,30.31
2019-04-22T08:13:34.190Z,30.11
2019-04-22T08:16:09.945Z,31.13
2019-04-22T08:18:45.397Z,30.36
2019-04-22T08:21:22.192Z,29.92
2019-04-22T08:24:01.529Z,30.33
2019-04-22T08:26:38.280Z,31.12
2019-04-22T08:29:21.528Z,29.69
2019-04-22T08:31:56.648Z,27.88
2019-04-22T08:34:26.111Z,28.94
2019-04-22T08:37:38.747Z,28.16
2019-04-22T08:39:38.638Z,28.43
2019-04-22T08:42:27.937Z,29.17
2019-04-22T08:45:08.103Z,28.96
2019-04-22T08:47:30.959Z,29.46
2019-04-22T08:50:12.016Z,29.02
2019-04-22T08:52:40.618Z,30.08
2019-04-22T08:55:20.874Z,31.00
2019-04-22T08:58:13.012Z,30.50
2019-04-22T09:00:34.358Z,30.19
2019-04-22T09:03:08.855Z,30.64
2019-04-22T09:08:19.351Z,28.41
2019-04-22T09:10:50.315Z,26.46
2019-04-22T09:13:31.278Z,26.44
2019-04-22T09:16:07.676Z,26.61
2019-04-22T09:18:41.007Z,29.73
2019-04-22T09:21:18.625Z,29.00
2019-04-22T09:26:34.822Z,28.06
2019-04-22T09:29:16.206Z,29.57
2019-04-22T09:31:47.449Z,27.21
2019-04-22T09:34:23.225Z,26.59
2019-04-22T09:36:58.240Z,26.20
2019-04-22T09:39:34.242Z,28.04
2019-04-22T09:42:09.092Z,30.28
2019-04-22T09:44:59.263Z,31.48
2019-04-22T09:47:19.130Z,31.38
2019-04-22T09:50:10.011Z,31.80
2019-04-22T09:52:30.824Z,32.38
2019-04-22T09:55:13.009Z,32.02
2019-04-22T09:57:38.343Z,33.17
2019-04-22T10:03:00.910Z,33.84
2019-04-22T10:05:52.485Z,33.77
2019-04-22T10:08:28.202Z,35.30
2019-04-22T10:11:07.622Z,36.26
2019-04-22T10:13:34.737Z,37.91
2019-04-22T10:16:10.455Z,37.17
2019-04-22T10:18:46.124Z,36.98
2019-04-22T10:21:24.288Z,37.83
2019-04-22T10:23:57.976Z,38.49
2019-04-22T10:26:34.900Z,39.16
2019-04-22T10:29:09.070Z,38.56
2019-04-22T10:34:05.889Z,38.60
2019-04-22T10:36:27.633Z,39.52
2019-04-22T10:39:04.314Z,39.40
2019-04-22T10:41:38.919Z,39.64
2019-04-22T10:44:15.134Z,39.60
2019-04-22T10:46:49.765Z,40.65
2019-04-22T10:49:24.417Z,40.57
2019-04-22T10:51:58.583Z,39.46
2019-04-22T10:54:31.778Z,39.26
2019-04-22T10:57:06.690Z,40.48
2019-04-22T10:59:40.798Z,40.32
2019-04-22T11:02:15.028Z,41.29
2019-04-22T11:04:50.172Z,41.47
2019-04-22T11:07:31.222Z,41.52
2019-04-22T11:10:15.438Z,42.44
2019-04-22T11:12:36.222Z,42.50
2019-04-22T11:15:13.762Z,44.45
2019-04-22T11:17:49.579Z,41.05
2019-04-22T11:20:24.044Z,39.69
2019-04-22T11:22:58.498Z,40.64
2019-04-22T11:25:34.086Z,42.02
2019-04-22T11:28:07.774Z,40.29
2019-04-22T11:30:42.779Z,38.67
2019-04-22T11:33:22.521Z,39.19
2019-04-22T11:36:01.999Z,40.10
2019-04-22T11:38:44.658Z,41.07
2019-04-22T11:41:12.624Z,43.22
2019-04-22T11:43:49.454Z,44.28
2019-04-22T11:46:25.211Z,44.83
2019-04-22T11:49:00.172Z,45.87
2019-04-22T11:51:34.060Z,45.47
2019-04-22T11:54:08.445Z,44.92
2019-04-22T11:57:12.936Z,44.36
2019-04-22T12:00:16.773Z,44.97
2019-04-22T12:02:58.753Z,44.92
2019-04-22T12:05:35.139Z,44.92
2019-04-22T12:08:13.286Z,45.25
2019-04-22T12:11:00.060Z,46.39
2019-04-22T12:13:35.772Z,47.03
2019-04-22T12:16:17.020Z,46.65
2019-04-22T12:18:55.497Z,47.96
2019-04-22T12:21:37.039Z,47.28
2019-04-22T12:24:21.379Z,46.96
2019-04-22T12:26:56.135Z,47.34
2019-04-22T12:29:31.059Z,47.48
2019-04-22T12:32:07.409Z,47.56
2019-04-22T12:34:43.714Z,47.97
2019-04-22T12:37:25.392Z,48.13
2019-04-22T12:39:56.433Z,47.71
2019-04-22T12:42:29.301Z,48.19
2019-04-22T12:45:04.315Z,48.16
2019-04-22T12:47:40.246Z,48.18
2019-04-22T12:50:25.348Z,48.44
2019-04-22T12:52:57.736Z,52.11
2019-04-22T12:55:30.177Z,54.18
2019-04-22T12:58:05.423Z,52.91
2019-04-22T13:00:40.489Z,52.00
2019-04-22T13:03:18.146Z,52.05
2019-04-22T13:05:53.653Z,53.07
2019-04-22T13:08:29.783Z,52.71
2019-04-22T13:11:10.585Z,53.19
2019-04-22T13:13:38.773Z,53.04
2019-04-22T13:16:15.381Z,53.32
2019-04-22T13:18:56.543Z,54.05
2019-04-22T13:21:28.800Z,55.27
2019-04-22T13:24:04.701Z,55.78
2019-04-22T13:26:39.314Z,55.82
2019-04-22T13:29:19.253Z,56.34
2019-04-22T13:31:55.102Z,57.49
2019-04-22T13:34:37.682Z,57.67
2019-04-22T13:37:07.245Z,57.27
2019-04-22T13:39:42.857Z,56.32
2019-04-22T13:42:25.453Z,57.51
2019-04-22T13:45:04.335Z,57.50
2019-04-22T13:48:11.480Z,60.14
2019-04-22T13:51:03.443Z,60.12
2019-04-22T13:54:14.410Z,57.86
2019-04-22T13:56:12.530Z,55.97
2019-04-22T13:58:44.779Z,57.39
2019-04-22T14:01:10.210Z,57.42
2019-04-22T14:03:58.726Z,59.06
2019-04-22T14:06:34.806Z,59.25
2019-04-22T14:09:13.701Z,59.23
2019-04-22T14:11:58.518Z,58.32
2019-04-22T14:14:30.103Z,59.86
2019-04-22T14:17:04.920Z,61.18
2019-04-22T14:19:40.293Z,61.45
2019-04-22T14:22:15.812Z,61.83
2019-04-22T14:24:50.454Z,64.17
2019-04-22T14:27:37.898Z,65.13
2019-04-22T14:30:02.888Z,65.54
2019-04-22T14:32:37.861Z,65.39
2019-04-22T14:35:13.284Z,65.42
2019-04-22T14:37:50.258Z,66.44
2019-04-22T14:40:28.744Z,66.64
2019-04-22T14:43:24.739Z,72.39
2019-04-22T14:46:08.179Z,66.60
2019-04-22T14:48:42.330Z,70.97
2019-04-22T14:51:16.058Z,71.45
2019-04-22T14:53:50.305Z,78.63
2019-04-22T14:56:10.557Z,78.27
2019-04-22T14:58:46.786Z,78.57
2019-04-22T15:01:26.687Z,82.69
2019-04-22T15:04:00.840Z,83.78
2019-04-22T15:06:36.135Z,85.56
2019-04-22T15:09:12.319Z,89.67
2019-04-22T15:12:00.839Z,91.02
2019-04-22T15:14:25.319Z,91.83
2019-04-22T15:17:18.681Z,98.04
2019-04-22T15:20:01.772Z,99.35
2019-04-22T15:22:38.851Z,100.00
2019-04-22T15:25:14.468Z,100.00
2019-04-22T15:27:51.458Z,100.00
2019-04-22T15:30:25.524Z,100.00
2019-04-22T15:33:00.935Z,100.00
2019-04-22T15:35:35.449Z,100.00
2019-04-22T15:38:11.147Z,100.00
2019-04-22T15:40:49.131Z,100.00
2019-04-22T15:43:26.994Z,100.00
2019-04-22T15:46:01.538Z,100.00
2019-04-22T15:48:35.988Z,100.00
2019-04-22T15:51:10.979Z,100.00
2019-04-22T15:53:47.559Z,100.00
2019-04-22T15:56:22.932Z,100.00
2019-04-22T15:58:57.777Z,100.00
2019-04-22T16:01:36.992Z,100.00
2019-04-22T16:04:10.354Z,100.00
2019-04-22T16:06:49.491Z,100.00
2019-04-22T16:09:36.610Z,100.00
2019-04-22T16:12:37.709Z,100.00
2019-04-22T16:15:11.670Z,100.00
2019-04-22T16:17:46.678Z,100.00
2019-04-22T16:20:28.103Z,100.00
2019-04-22T16:23:29.591Z,100.00
2019-04-22T16:26:48.931Z,100.00
2019-04-22T16:29:27.508Z,100.00
2019-04-22T16:32:01.223Z,100.00
2019-04-22T16:34:36.521Z,100.00
2019-04-22T16:37:12.551Z,100.00
2019-04-22T16:39:48.968Z,100.00
2019-04-22T16:42:33.834Z,100.00
2019-04-22T16:45:03.836Z,100.00
2019-04-22T16:47:39.552Z,100.00
2019-04-22T16:50:15.926Z,100.00
2019-04-22T16:52:54.417Z,100.00
2019-04-22T16:55:30.772Z,100.00
2019-04-22T16:58:10.661Z,100.00
2019-04-22T17:00:46.954Z,100.00
2019-04-22T17:03:40.498Z,100.00
2019-04-22T17:06:37.308Z,100.00
2019-04-22T17:09:17.538Z,100.00
2019-04-22T17:12:12.345Z,100.00
2019-04-22T17:14:52.687Z,100.00
2019-04-22T17:17:26.606Z,100.00
2019-04-22T17:20:02.939Z,100.00
2019-04-22T17:22:47.485Z,100.00
2019-04-22T17:25:32.105Z,100.00
2019-04-22T17:28:08.059Z,100.00
2019-04-22T17:30:45.676Z,100.00
2019-04-22T17:33:20.943Z,100.00
2019-04-22T17:35:57.060Z,100.00
2019-04-22T17:38:42.736Z,100.00
2019-04-22T17:41:22.098Z,100.00
2019-04-22T17:44:27.841Z,100.00
2019-04-22T17:46:52.580Z,100.00
2019-04-22T17:50:05.152Z,100.00
2019-04-22T17:52:38.878Z,100.00
2019-04-22T17:55:04.852Z,100.00
2019-04-22T17:57:46.345Z,100.00
2019-04-22T18:00:21.814Z,100.00
2019-04-22T18:02:55.980Z,100.00
2019-04-22T18:05:31.984Z,100.00
2019-04-22T18:08:17.419Z,100.00
2019-04-22T18:10:56.078Z,100.00
2019-04-22T18:13:34.934Z,100.00
2019-04-22T18:16:08.147Z,100.00
2019-04-22T18:18:42.946Z,100.00
2019-04-22T18:21:14.714Z,100.00
2019-04-22T18:23:44.748Z,100.00
2019-04-22T18:26:26.221Z,100.00
2019-04-22T18:29:07.133Z,100.00
2019-04-22T18:31:40.883Z,100.00
2019-04-22T18:34:19.849Z,100.00
2019-04-22T18:37:07.377Z,100.00
2019-04-22T18:39:52.631Z,100.00
2019-04-22T18:42:24.425Z,100.00
2019-04-22T18:45:20.284Z,100.00
2019-04-22T18:47:38.703Z,100.00
2019-04-22T18:50:24.705Z,100.00
2019-04-22T18:53:12.401Z,100.00
2019-04-22T18:56:01.709Z,100.00
2019-04-22T18:58:39.436Z,100.00
2019-04-22T19:01:10.145Z,100.00
2019-04-22T19:03:56.167Z,100.00
2019-04-22T19:06:52.111Z,100.00
2019-04-22T19:09:48.122Z,100.00
2019-04-22T19:12:30.636Z,100.00
2019-04-22T19:15:22.719Z,100.00
2019-04-22T19:17:49.077Z,100.00
2019-04-22T19:20:15.819Z,100.00
2019-04-22T19:22:55.406Z,100.00
2019-04-22T19:25:20.025Z,100.00
2019-04-22T19:28:17.858Z,100.00
2019-04-22T19:30:48.161Z,100.00
2019-04-22T19:33:27.325Z,100.00
2019-04-22T19:35:59.508Z,100.00
2019-04-22T19:38:34.011Z,100.00
2019-04-22T19:41:19.743Z,100.00
2019-04-22T19:43:56.931Z,100.00
2019-04-22T19:46:35.397Z,100.00
2019-04-22T19:49:16.766Z,100.00
2019-04-22T19:51:57.599Z,100.00
2019-04-22T19:54:24.759Z,100.00
2019-04-22T19:57:08.555Z,100.00
2019-04-22T20:00:00.962Z,100.00
2019-04-22T20:03:16.934Z,100.00
2019-04-22T20:05:56.243Z,100.00
2019-04-22T20:08:30.931Z,100.00
2019-04-22T20:11:12.895Z,100.00
2019-04-22T20:13:56.882Z,100.00
2019-04-22T20:16:27.395Z,100.00
2019-04-22T20:19:26.909Z,100.00
2019-04-22T20:21:51.948Z,100.00
2019-04-22T20:24:21.740Z,100.00
2019-04-22T20:27:28.538Z,100.00
2019-04-22T20:30:34.809Z,100.00
2019-04-22T20:33:19.096Z,100.00
2019-04-22T20:36:39.547Z,100.00
2019-04-22T20:38:53.819Z,100.00
2019-04-22T20:41:34.274Z,100.00
2019-04-22T20:44:29.096Z,100.00
2019-04-22T20:47:07.193Z,100.00
2019-04-22T20:49:55.786Z,100.00
2019-04-22T20:52:34.157Z,100.00
2019-04-22T20:55:08.018Z,100.00
2019-04-22T20:58:00.723Z,100.00
2019-04-22T21:00:36.583Z,100.00
2019-04-22T21:03:13.690Z,100.00
2019-04-22T21:05:47.084Z,100.00
2019-04-22T21:08:40.354Z,100.00
2019-04-22T21:11:38.558Z,100.00
2019-04-22T21:14:20.021Z,100.00
2019-04-22T21:17:10.255Z,100.00
2019-04-22T21:19:55.991Z,100.00
2019-04-22T21:22:28.525Z,100.00
2019-04-22T21:25:19.609Z,100.00
2019-04-22T21:28:04.809Z,100.00
2019-04-22T21:30:37.529Z,100.00
2019-04-22T21:33:06.711Z,100.00
2019-04-22T21:36:12.053Z,100.00
2019-04-22T21:38:21.433Z,100.00
2019-04-22T21:40:54.780Z,100.00
2019-04-22T21:43:46.416Z,100.00
2019-04-22T21:46:19.084Z,100.00
2019-04-22T21:48:52.859Z,100.00
2019-04-22T21:51:34.969Z,100.00
2019-04-22T21:54:12.293Z,100.00
2019-04-22T21:59:40.212Z,100.00
2019-04-22T22:02:28.484Z,100.00
2019-04-22T22:05:00.294Z,100.00
2019-04-22T22:07:27.624Z,100.00
2019-04-22T22:10:21.178Z,100.00
2019-04-22T22:12:59.212Z,100.00
2019-04-22T22:15:30.341Z,100.00
2019-04-22T22:18:08.746Z,100.00
2019-04-22T22:21:02.200Z,100.00
2019-04-22T22:23:26.932Z,100.00
2019-04-22T22:25:53.509Z,100.00
2019-04-22T22:31:15.417Z,100.00
2019-04-22T22:33:48.197Z,100.00
2019-04-22T22:36:22.097Z,100.00
2019-04-22T22:38:51.911Z,100.00
2019-04-22T22:41:14.008Z,100.00
2019-04-22T22:43:51.094Z,100.00
2019-04-22T22:46:31.946Z,100.00
2019-04-22T22:49:22.938Z,100.00
2019-04-22T22:52:11.685Z,100.00
2019-04-22T22:54:34.984Z,100.00
2019-04-22T22:57:17.695Z,100.00
2019-04-22T22:59:43.056Z,100.00
2019-04-22T23:02:20.282Z,100.00
2019-04-22T23:04:59.389Z,100.00
2019-04-22T23:07:38.877Z,100.00
2019-04-22T23:10:07.929Z,100.00
2019-04-22T23:12:48.400Z,100.00
2019-04-22T23:15:13.896Z,100.00
2019-04-22T23:17:37.832Z,100.00
2019-04-22T23:20:11.724Z,100.00
2019-04-22T23:23:14.349Z,100.00
2019-04-22T23:25:53.719Z,100.00
2019-04-22T23:28:34.891Z,100.00
2019-04-22T23:31:21.104Z,100.00
2019-04-22T23:34:01.130Z,100.00
2019-04-22T23:36:49.892Z,100.00
2019-04-22T23:39:34.077Z,100.00
2019-04-22T23:42:15.944Z,100.00
2019-04-22T23:44:47.677Z,100.00
2019-04-22T23:47:18.513Z,100.00
2019-04-22T23:49:56.464Z,100.00
2019-04-22T23:53:00.512Z,100.00
2019-04-22T23:55:37.119Z,100.00
2019-04-22T23:58:11.192Z,100.00
